createdAt,value
2019-04-10T00:01:30.030Z,78.07
2019-04-10T00:04:00.792Z,78.44
2019-04-10T00:06:30.716Z,78.17
2019-04-10T00:09:00.929Z,78.04
2019-04-10T00:11:32.628Z,78.13
2019-04-10T00:14:02.964Z,79.12
2019-04-10T00:16:33.122Z,78.83
2019-04-10T00:19:04.483Z,78.66
2019-04-10T00:21:35.482Z,79.30
2019-04-10T00:24:06.040Z,79.21
2019-04-10T00:26:35.544Z,79.72
2019-04-10T00:29:05.765Z,79.92
2019-04-10T00:31:36.011Z,79.80
2019-04-10T00:34:05.823Z,80.42
2019-04-10T00:36:35.682Z,80.04
2019-04-10T00:39:07.233Z,80.45
2019-04-10T00:41:37.368Z,79.89
2019-04-10T00:44:07.802Z,80.15
2019-04-10T00:46:37.992Z,80.26
2019-04-10T00:49:07.998Z,80.57
2019-04-10T00:51:38.033Z,80.49
2019-04-10T00:54:08.065Z,80.85
2019-04-10T00:56:38.932Z,80.30
2019-04-10T00:59:10.216Z,80.84
2019-04-10T01:01:41.350Z,80.71
2019-04-10T01:04:12.364Z,81.27
2019-04-10T01:06:42.452Z,81.30
2019-04-10T01:09:13.206Z,81.54
2019-04-10T01:11:43.430Z,81.24
2019-04-10T01:14:13.721Z,81.49
2019-04-10T01:16:44.013Z,80.75
2019-04-10T01:19:13.966Z,80.83
2019-04-10T01:21:44.289Z,80.28
2019-04-10T01:24:14.307Z,79.89
2019-04-10T01:26:45.442Z,80.82
2019-04-10T01:29:15.538Z,79.65
2019-04-10T01:31:45.683Z,80.89
2019-04-10T01:34:15.607Z,81.24
2019-04-10T01:36:46.014Z,80.91
2019-04-10T01:39:17.964Z,81.53
2019-04-10T01:41:48.065Z,81.82
2019-04-10T01:44:18.214Z,82.79
2019-04-10T01:46:48.659Z,82.14
2019-04-10T01:49:19.630Z,83.13
2019-04-10T01:51:49.752Z,83.15
2019-04-10T01:54:19.700Z,83.22
2019-04-10T01:56:50.148Z,82.90
2019-04-10T01:59:21.546Z,83.29
2019-04-10T02:01:59.243Z,82.73
2019-04-10T02:04:29.256Z,83.14
2019-04-10T02:06:59.955Z,83.34
2019-04-10T02:09:29.772Z,82.78
2019-04-10T02:11:59.775Z,82.95
2019-04-10T02:14:30.023Z,82.99
2019-04-10T02:17:00.185Z,83.71
2019-04-10T02:19:30.265Z,83.98
2019-04-10T02:22:00.343Z,82.97
2019-04-10T02:24:31.316Z,83.42
2019-04-10T02:27:02.312Z,83.89
2019-04-10T02:29:35.660Z,84.10
2019-04-10T02:32:05.788Z,84.25
2019-04-10T02:34:37.014Z,84.37
2019-04-10T02:37:08.577Z,84.67
2019-04-10T02:39:44.726Z,84.93
2019-04-10T02:42:10.854Z,85.45
2019-04-10T02:44:41.636Z,85.65
2019-04-10T02:47:12.931Z,85.41
2019-04-10T02:49:44.631Z,85.49
2019-04-10T02:52:14.919Z,85.48
2019-04-10T02:54:46.005Z,85.62
2019-04-10T02:57:17.400Z,86.28
2019-04-10T02:59:48.872Z,86.56
2019-04-10T03:02:20.249Z,86.52
2019-04-10T03:04:50.957Z,86.33
2019-04-10T03:07:21.993Z,86.23
2019-04-10T03:10:02.317Z,86.28
2019-04-10T03:12:23.982Z,85.76
2019-04-10T03:14:54.968Z,85.82
2019-04-10T03:17:26.023Z,86.37
2019-04-10T03:19:56.169Z,85.93
2019-04-10T03:22:26.572Z,85.88
2019-04-10T03:24:57.543Z,85.97
2019-04-10T03:27:28.092Z,85.88
2019-04-10T03:29:57.439Z,86.11
2019-04-10T03:32:50.360Z,85.87
2019-04-10T03:35:20.728Z,85.50
2019-04-10T03:37:50.862Z,84.69
2019-04-10T03:40:21.666Z,84.48
2019-04-10T03:42:52.946Z,84.16
2019-04-10T03:45:24.116Z,83.70
2019-04-10T03:47:55.793Z,83.53
2019-04-10T03:50:25.849Z,83.64
2019-04-10T03:52:55.954Z,83.07
2019-04-10T03:55:27.158Z,83.01
2019-04-10T03:57:57.171Z,82.16
2019-04-10T04:00:27.881Z,81.68
2019-04-10T04:02:58.226Z,81.19
2019-04-10T04:05:28.820Z,81.00
2019-04-10T04:07:59.091Z,80.22
2019-04-10T04:10:29.091Z,79.63
2019-04-10T04:13:00.132Z,78.68
2019-04-10T04:15:30.407Z,78.17
2019-04-10T04:18:00.432Z,77.38
2019-04-10T04:20:30.701Z,76.77
2019-04-10T04:23:01.394Z,76.21
2019-04-10T04:25:30.979Z,75.89
2019-04-10T04:28:00.792Z,75.64
2019-04-10T04:30:31.996Z,75.29
2019-04-10T04:33:02.523Z,74.73
2019-04-10T04:35:32.630Z,74.26
2019-04-10T04:38:02.631Z,73.96
2019-04-10T04:40:33.564Z,73.84
2019-04-10T04:43:03.776Z,73.69
2019-04-10T04:45:33.805Z,73.19
2019-04-10T04:48:03.743Z,72.71
2019-04-10T04:50:34.220Z,72.08
2019-04-10T04:53:04.568Z,71.79
2019-04-10T04:55:37.380Z,71.16
2019-04-10T04:58:07.479Z,70.61
2019-04-10T05:00:37.658Z,70.26
2019-04-10T05:03:07.831Z,69.41
2019-04-10T05:05:37.794Z,69.28
2019-04-10T05:08:08.455Z,69.28
2019-04-10T05:10:38.368Z,68.90
2019-04-10T05:13:08.417Z,68.51
2019-04-10T05:15:38.344Z,67.95
2019-04-10T05:18:08.275Z,67.73
2019-04-10T05:20:45.387Z,67.53
2019-04-10T05:23:10.287Z,67.08
2019-04-10T05:25:41.404Z,66.89
2019-04-10T05:28:11.606Z,66.34
2019-04-10T05:30:41.536Z,65.63
2019-04-10T05:33:12.017Z,64.96
2019-04-10T05:35:41.903Z,64.54
2019-04-10T05:38:12.287Z,64.29
2019-04-10T05:40:42.306Z,63.56
2019-04-10T05:43:13.259Z,63.78
2019-04-10T05:45:43.492Z,63.17
2019-04-10T05:48:13.528Z,62.59
2019-04-10T05:50:53.072Z,62.72
2019-04-10T05:53:16.263Z,61.67
2019-04-10T05:55:47.281Z,61.15
2019-04-10T05:58:17.532Z,60.06
2019-04-10T06:00:47.611Z,61.00
2019-04-10T06:03:18.434Z,59.78
2019-04-10T06:05:48.709Z,59.69
2019-04-10T06:08:18.756Z,59.11
2019-04-10T06:10:49.790Z,58.43
2019-04-10T06:13:20.052Z,57.91
2019-04-10T06:15:50.908Z,57.24
2019-04-10T06:18:21.142Z,56.64
2019-04-10T06:20:50.984Z,55.58
2019-04-10T06:23:21.271Z,55.57
2019-04-10T06:25:51.341Z,55.71
2019-04-10T06:28:24.653Z,54.20
2019-04-10T06:30:54.529Z,52.69
2019-04-10T06:33:25.873Z,48.87
2019-04-10T06:35:57.416Z,41.04
2019-04-10T06:38:28.579Z,35.63
2019-04-10T06:40:59.720Z,31.67
2019-04-10T06:43:30.851Z,31.02
2019-04-10T06:46:01.025Z,30.47
2019-04-10T06:48:32.113Z,30.55
2019-04-10T06:51:02.207Z,30.57
2019-04-10T06:53:33.118Z,29.04
2019-04-10T06:56:04.887Z,27.87
2019-04-10T06:58:35.803Z,25.77
2019-04-10T07:01:06.355Z,23.50
2019-04-10T07:03:49.647Z,21.78
2019-04-10T07:06:15.608Z,20.69
2019-04-10T07:08:40.271Z,20.35
2019-04-10T07:11:12.907Z,19.90
2019-04-10T07:13:42.992Z,19.64
2019-04-10T07:16:12.965Z,20.29
2019-04-10T07:18:45.888Z,20.10
2019-04-10T07:21:14.690Z,19.42
2019-04-10T07:23:45.208Z,19.19
2019-04-10T07:26:21.768Z,18.89
2019-04-10T07:28:47.870Z,19.14
2019-04-10T07:31:20.029Z,19.31
2019-04-10T07:33:51.662Z,19.09
2019-04-10T07:36:20.921Z,19.55
2019-04-10T07:38:53.878Z,19.19
2019-04-10T07:41:25.648Z,19.33
2019-04-10T07:43:56.771Z,19.18
2019-04-10T07:46:26.263Z,19.46
2019-04-10T07:48:56.541Z,18.15
2019-04-10T07:51:27.642Z,17.78
2019-04-10T07:53:57.819Z,17.25
2019-04-10T07:56:27.863Z,17.20
2019-04-10T07:58:57.794Z,17.30
2019-04-10T08:01:28.036Z,17.47
2019-04-10T08:03:58.279Z,17.24
2019-04-10T08:06:28.223Z,17.77
2019-04-10T08:08:59.091Z,16.98
2019-04-10T08:11:29.626Z,16.90
2019-04-10T08:14:01.152Z,17.65
2019-04-10T08:16:31.287Z,17.47
2019-04-10T08:19:01.919Z,17.06
2019-04-10T08:21:32.941Z,16.09
2019-04-10T08:24:02.974Z,15.02
2019-04-10T08:26:32.923Z,15.74
2019-04-10T08:29:03.358Z,16.00
2019-04-10T08:31:33.388Z,16.25
2019-04-10T08:34:03.430Z,16.32
2019-04-10T08:36:33.265Z,15.17
2019-04-10T08:39:04.714Z,14.98
2019-04-10T08:41:35.159Z,14.80
2019-04-10T08:44:06.410Z,14.14
2019-04-10T08:46:36.474Z,13.61
2019-04-10T08:49:06.419Z,14.27
2019-04-10T08:51:36.392Z,15.36
2019-04-10T08:54:06.382Z,16.20
2019-04-10T08:56:36.560Z,14.18
2019-04-10T08:59:07.581Z,12.71
2019-04-10T09:01:37.714Z,12.83
2019-04-10T09:04:07.869Z,12.98
2019-04-10T09:06:37.904Z,12.45
2019-04-10T09:09:08.218Z,14.20
2019-04-10T09:11:38.592Z,15.36
2019-04-10T09:14:08.727Z,15.75
2019-04-10T09:16:38.760Z,15.20
2019-04-10T09:19:09.682Z,13.95
2019-04-10T09:21:39.888Z,13.31
2019-04-10T09:24:10.235Z,13.17
2019-04-10T09:26:40.356Z,12.84
2019-04-10T09:29:10.166Z,12.59
2019-04-10T09:31:40.101Z,12.85
2019-04-10T09:34:10.100Z,12.69
2019-04-10T09:36:41.734Z,12.79
2019-04-10T09:39:11.664Z,12.72
2019-04-10T09:41:41.859Z,13.13
2019-04-10T09:44:12.320Z,13.61
2019-04-10T09:46:42.889Z,13.95
2019-04-10T09:49:12.917Z,14.03
2019-04-10T09:51:42.765Z,14.37
2019-04-10T09:54:13.369Z,14.47
2019-04-10T09:56:44.208Z,16.54
2019-04-10T09:59:14.151Z,16.93
2019-04-10T10:01:44.467Z,17.71
2019-04-10T10:04:15.366Z,19.04
2019-04-10T10:06:45.433Z,18.92
2019-04-10T10:09:15.376Z,18.80
2019-04-10T10:11:45.302Z,18.50
2019-04-10T10:14:14.560Z,18.77
2019-04-10T10:16:44.388Z,18.36
2019-04-10T10:19:14.294Z,17.35
2019-04-10T10:21:44.906Z,16.35
2019-04-10T10:24:14.780Z,16.14
2019-04-10T10:26:46.119Z,17.93
2019-04-10T10:29:15.522Z,18.31
2019-04-10T10:31:46.473Z,18.30
2019-04-10T10:34:18.428Z,16.18
2019-04-10T10:36:50.645Z,15.05
2019-04-10T10:39:21.329Z,13.05
2019-04-10T10:41:52.396Z,11.70
2019-04-10T10:44:22.431Z,10.49
2019-04-10T10:46:52.668Z,10.33
2019-04-10T10:49:22.728Z,10.58
2019-04-10T10:51:53.320Z,12.48
2019-04-10T10:54:23.399Z,13.80
2019-04-10T10:56:53.435Z,13.90
2019-04-10T10:59:23.372Z,13.24
2019-04-10T11:01:53.844Z,13.05
2019-04-10T11:04:24.170Z,12.42
2019-04-10T11:06:59.950Z,12.33
2019-04-10T11:09:26.259Z,14.46
2019-04-10T11:11:56.220Z,15.84
2019-04-10T11:14:27.703Z,15.38
2019-04-10T11:16:57.818Z,14.09
2019-04-10T11:19:29.073Z,12.78
2019-04-10T11:21:59.332Z,10.73
2019-04-10T11:24:29.427Z,9.37
2019-04-10T11:27:00.065Z,8.90
2019-04-10T11:29:32.539Z,8.19
2019-04-10T11:32:06.756Z,8.18
2019-04-10T11:34:38.221Z,8.21
2019-04-10T11:37:23.414Z,8.14
2019-04-10T11:39:43.529Z,7.52
2019-04-10T11:42:12.200Z,7.48
2019-04-10T11:44:45.342Z,7.49
2019-04-10T11:47:14.900Z,8.47
2019-04-10T11:49:47.167Z,8.41
2019-04-10T11:52:24.425Z,8.33
2019-04-10T11:54:49.247Z,7.91
2019-04-10T11:57:20.436Z,9.04
2019-04-10T11:59:50.954Z,8.76
2019-04-10T12:02:24.713Z,8.40
2019-04-10T12:04:56.051Z,8.53
2019-04-10T12:07:54.966Z,8.51
2019-04-10T12:12:28.025Z,11.01
2019-04-10T12:14:59.732Z,10.59
2019-04-10T12:17:29.849Z,11.49
2019-04-10T12:20:00.543Z,12.30
2019-04-10T12:22:31.642Z,11.52
2019-04-10T12:25:02.835Z,14.68
2019-04-10T12:27:33.518Z,13.48
2019-04-10T12:30:04.845Z,10.30
2019-04-10T12:32:35.033Z,8.91
2019-04-10T12:35:06.952Z,12.97
2019-04-10T12:37:37.174Z,16.83
2019-04-10T12:40:09.755Z,19.95
2019-04-10T12:42:40.666Z,20.83
2019-04-10T12:45:11.450Z,21.00
2019-04-10T12:47:41.962Z,14.03
2019-04-10T12:50:12.359Z,15.38
2019-04-10T12:52:42.884Z,17.75
2019-04-10T12:55:14.877Z,20.49
2019-04-10T12:57:45.424Z,23.13
2019-04-10T13:00:18.740Z,25.29
2019-04-10T13:02:48.781Z,25.49
2019-04-10T13:05:18.927Z,27.00
2019-04-10T13:07:48.061Z,24.90
2019-04-10T13:10:18.336Z,26.04
2019-04-10T13:12:49.282Z,25.57
2019-04-10T13:15:19.361Z,25.41
2019-04-10T13:17:49.071Z,25.12
2019-04-10T13:20:19.883Z,25.97
2019-04-10T13:22:50.685Z,26.72
2019-04-10T13:25:21.859Z,27.54
2019-04-10T13:27:53.043Z,27.63
2019-04-10T13:30:22.985Z,27.81
2019-04-10T13:32:53.027Z,25.38
2019-04-10T13:35:24.126Z,21.43
2019-04-10T13:37:54.840Z,18.74
2019-04-10T13:40:25.749Z,17.31
2019-04-10T13:42:55.818Z,18.34
2019-04-10T13:45:25.162Z,19.41
2019-04-10T13:47:54.963Z,18.80
2019-04-10T13:50:24.348Z,19.62
2019-04-10T13:52:55.063Z,20.13
2019-04-10T13:55:26.293Z,20.15
2019-04-10T13:57:57.118Z,22.55
2019-04-10T14:00:41.080Z,28.44
2019-04-10T14:03:12.234Z,37.91
2019-04-10T14:05:43.282Z,43.89
2019-04-10T14:08:14.598Z,42.62
2019-04-10T14:10:44.726Z,44.46
2019-04-10T14:13:15.712Z,43.60
2019-04-10T14:15:46.482Z,43.56
2019-04-10T14:18:18.535Z,43.37
2019-04-10T14:20:49.593Z,43.06
2019-04-10T14:23:22.208Z,45.70
2019-04-10T14:25:53.985Z,42.44
2019-04-10T14:28:27.096Z,44.43
2019-04-10T14:30:59.980Z,44.05
2019-04-10T14:33:30.395Z,48.61
2019-04-10T14:35:59.985Z,50.06
2019-04-10T14:38:30.755Z,50.21
2019-04-10T14:41:01.167Z,48.59
2019-04-10T14:43:30.692Z,50.76
2019-04-10T14:46:00.690Z,49.54
2019-04-10T14:48:30.731Z,49.07
2019-04-10T14:51:00.791Z,49.94
2019-04-10T14:53:31.145Z,49.67
2019-04-10T14:56:00.463Z,46.03
2019-04-10T14:58:31.287Z,46.08
2019-04-10T15:01:02.803Z,47.43
2019-04-10T15:03:33.607Z,48.96
2019-04-10T15:06:04.992Z,50.75
2019-04-10T15:08:35.648Z,50.79
2019-04-10T15:11:04.976Z,50.58
2019-04-10T15:13:36.141Z,51.68
2019-04-10T15:16:07.137Z,49.01
2019-04-10T15:18:37.291Z,47.59
2019-04-10T15:21:07.352Z,45.68
2019-04-10T15:23:37.285Z,44.76
2019-04-10T15:26:08.021Z,45.77
2019-04-10T15:28:39.384Z,47.01
2019-04-10T15:31:09.546Z,47.95
2019-04-10T15:33:39.589Z,48.21
2019-04-10T15:36:09.518Z,48.52
2019-04-10T15:38:40.180Z,49.21
2019-04-10T15:41:10.598Z,49.49
2019-04-10T15:43:41.315Z,49.40
2019-04-10T15:46:11.402Z,49.88
2019-04-10T15:48:41.887Z,49.78
2019-04-10T15:51:12.043Z,50.04
2019-04-10T15:53:42.926Z,48.85
2019-04-10T15:56:13.800Z,49.55
2019-04-10T15:58:43.870Z,49.53
2019-04-10T16:01:15.973Z,49.65
2019-04-10T16:03:47.824Z,49.21
2019-04-10T16:06:17.835Z,49.29
2019-04-10T16:08:48.286Z,49.09
2019-04-10T16:11:32.236Z,50.15
2019-04-10T16:14:16.666Z,50.63
2019-04-10T16:16:42.274Z,51.55
2019-04-10T16:19:20.465Z,51.74
2019-04-10T16:21:52.116Z,51.62
2019-04-10T16:24:22.908Z,52.26
2019-04-10T16:26:53.711Z,52.92
2019-04-10T16:29:25.216Z,53.33
2019-04-10T16:31:56.509Z,54.30
2019-04-10T16:34:26.923Z,53.80
2019-04-10T16:36:57.717Z,54.33
2019-04-10T16:39:27.930Z,55.25
2019-04-10T16:42:00.037Z,55.41
2019-04-10T16:44:30.129Z,55.71
2019-04-10T16:47:00.058Z,55.64
2019-04-10T16:49:30.895Z,57.44
2019-04-10T16:52:00.943Z,56.65
2019-04-10T16:54:31.344Z,56.72
2019-04-10T16:57:02.462Z,60.94
2019-04-10T16:59:32.597Z,58.04
2019-04-10T17:02:03.727Z,58.59
2019-04-10T17:04:34.203Z,59.23
2019-04-10T17:07:04.134Z,58.52
2019-04-10T17:09:34.502Z,58.89
2019-04-10T17:12:06.290Z,63.01
2019-04-10T17:14:37.743Z,63.77
2019-04-10T17:17:08.360Z,64.96
2019-04-10T17:19:48.853Z,65.26
2019-04-10T17:22:11.046Z,63.47
2019-04-10T17:24:41.829Z,63.17
2019-04-10T17:27:13.110Z,63.13
2019-04-10T17:29:43.271Z,62.62
2019-04-10T17:32:13.272Z,62.16
2019-04-10T17:34:43.217Z,61.80
2019-04-10T17:37:14.391Z,61.95
2019-04-10T17:39:44.535Z,61.94
2019-04-10T17:42:14.584Z,62.74
2019-04-10T17:44:45.641Z,63.55
2019-04-10T17:47:16.599Z,63.75
2019-04-10T17:49:47.675Z,64.18
2019-04-10T17:52:18.686Z,63.78
2019-04-10T17:54:49.771Z,64.00
2019-04-10T17:57:19.705Z,64.06
2019-04-10T17:59:50.979Z,64.51
2019-04-10T18:02:21.424Z,64.75
2019-04-10T18:04:51.329Z,65.20
2019-04-10T18:07:24.462Z,65.52
2019-04-10T18:09:54.511Z,65.63
2019-04-10T18:12:24.539Z,65.58
2019-04-10T18:14:55.567Z,65.83
2019-04-10T18:17:26.931Z,66.21
2019-04-10T18:19:58.729Z,66.25
2019-04-10T18:22:28.880Z,66.23
2019-04-10T18:24:58.924Z,66.13
2019-04-10T18:27:30.032Z,65.75
2019-04-10T18:30:00.041Z,65.43
2019-04-10T18:32:30.047Z,65.34
2019-04-10T18:35:00.445Z,65.11
2019-04-10T18:37:31.027Z,65.40
2019-04-10T18:40:01.076Z,65.41
2019-04-10T18:42:32.915Z,65.57
2019-04-10T18:45:02.206Z,65.56
2019-04-10T18:47:34.714Z,65.59
2019-04-10T18:50:04.426Z,65.97
2019-04-10T18:52:35.098Z,66.21
2019-04-10T18:55:06.081Z,66.51
2019-04-10T18:57:36.038Z,66.74
2019-04-10T19:00:24.293Z,66.81
2019-04-10T19:02:55.849Z,67.42
2019-04-10T19:05:27.849Z,67.65
2019-04-10T19:07:58.735Z,68.09
2019-04-10T19:10:30.601Z,68.29
2019-04-10T19:13:01.381Z,68.63
2019-04-10T19:15:31.580Z,69.00
2019-04-10T19:18:03.592Z,69.11
2019-04-10T19:20:33.894Z,69.33
2019-04-10T19:23:04.419Z,69.61
2019-04-10T19:25:34.733Z,70.13
2019-04-10T19:28:06.642Z,70.09
2019-04-10T19:30:39.367Z,70.29
2019-04-10T19:33:10.512Z,70.50
2019-04-10T19:35:41.397Z,70.21
2019-04-10T19:38:13.408Z,70.45
2019-04-10T19:40:43.848Z,70.54
2019-04-10T19:43:14.040Z,70.42
2019-04-10T19:45:44.012Z,70.49
2019-04-10T19:48:15.078Z,70.73
2019-04-10T19:50:45.644Z,71.19
2019-04-10T19:53:15.157Z,71.03
2019-04-10T19:55:46.243Z,71.03
2019-04-10T19:58:16.304Z,71.34
2019-04-10T20:00:46.759Z,71.54
2019-04-10T20:03:17.922Z,71.95
2019-04-10T20:05:47.849Z,71.93
2019-04-10T20:08:17.931Z,72.16
2019-04-10T20:10:47.921Z,72.25
2019-04-10T20:13:18.708Z,72.96
2019-04-10T20:15:48.952Z,73.66
2019-04-10T20:18:19.148Z,73.80
2019-04-10T20:20:49.294Z,74.29
2019-04-10T20:23:19.543Z,74.32
2019-04-10T20:25:50.534Z,74.61
2019-04-10T20:28:20.661Z,74.79
2019-04-10T20:30:52.310Z,74.84
2019-04-10T20:33:22.909Z,75.39
2019-04-10T20:35:54.025Z,76.60
2019-04-10T20:38:25.248Z,76.93
2019-04-10T20:40:55.315Z,77.07
2019-04-10T20:43:28.112Z,76.82
2019-04-10T20:45:58.059Z,77.17
2019-04-10T20:48:28.683Z,77.14
2019-04-10T20:50:58.775Z,77.18
2019-04-10T20:53:28.783Z,77.89
2019-04-10T20:55:59.955Z,77.81
2019-04-10T20:58:29.982Z,78.31
2019-04-10T21:00:59.957Z,78.43
2019-04-10T21:03:30.255Z,78.60
2019-04-10T21:06:00.505Z,78.88
2019-04-10T21:08:30.732Z,78.76
2019-04-10T21:11:00.773Z,79.07
2019-04-10T21:13:31.833Z,79.09
2019-04-10T21:16:02.971Z,79.06
2019-04-10T21:18:33.515Z,79.11
2019-04-10T21:21:03.804Z,79.17
2019-04-10T21:23:33.798Z,79.25
2019-04-10T21:26:03.963Z,79.36
2019-04-10T21:28:34.749Z,79.70
2019-04-10T21:31:22.861Z,79.88
2019-04-10T21:34:11.999Z,80.14
2019-04-10T21:36:43.450Z,80.23
2019-04-10T21:39:13.816Z,80.53
2019-04-10T21:41:44.598Z,80.69
2019-04-10T21:44:16.035Z,80.57
2019-04-10T21:46:46.693Z,80.34
2019-04-10T21:49:16.844Z,80.38
2019-04-10T21:51:46.777Z,80.61
2019-04-10T21:54:16.818Z,80.56
2019-04-10T21:56:46.853Z,80.24
2019-04-10T21:59:16.786Z,80.24
2019-04-10T22:01:47.236Z,80.42
2019-04-10T22:04:18.868Z,80.84
2019-04-10T22:06:51.539Z,80.95
2019-04-10T22:09:26.422Z,81.05
2019-04-10T22:11:58.450Z,80.86
2019-04-10T22:14:28.423Z,80.73
2019-04-10T22:16:58.709Z,80.49
2019-04-10T22:19:28.948Z,80.42
2019-04-10T22:21:58.921Z,80.70
2019-04-10T22:24:29.847Z,80.92
2019-04-10T22:27:01.099Z,80.68
2019-04-10T22:29:31.218Z,80.69
2019-04-10T22:32:02.029Z,80.58
2019-04-10T22:34:34.247Z,80.49
2019-04-10T22:37:06.261Z,80.69
2019-04-10T22:39:36.508Z,80.60
2019-04-10T22:42:07.565Z,80.84
2019-04-10T22:44:42.549Z,80.67
2019-04-10T22:47:09.278Z,80.78
2019-04-10T22:49:39.371Z,80.91
2019-04-10T22:52:09.363Z,81.03
2019-04-10T22:54:39.601Z,80.95
2019-04-10T22:57:10.488Z,80.97
2019-04-10T22:59:40.480Z,81.25
2019-04-10T23:02:12.063Z,81.11
2019-04-10T23:04:42.828Z,80.98
2019-04-10T23:07:12.160Z,80.90
2019-04-10T23:09:42.070Z,80.87
2019-04-10T23:12:12.103Z,80.99
2019-04-10T23:14:42.787Z,81.14
2019-04-10T23:17:12.794Z,81.41
2019-04-10T23:19:42.826Z,81.35
2019-04-10T23:22:13.413Z,81.32
2019-04-10T23:24:43.498Z,81.66
2019-04-10T23:27:13.574Z,81.53
2019-04-10T23:29:44.340Z,81.71
2019-04-10T23:32:15.215Z,81.92
2019-04-10T23:34:45.306Z,82.28
2019-04-10T23:37:15.337Z,82.59
2019-04-10T23:39:46.145Z,83.07
2019-04-10T23:42:16.143Z,83.50
2019-04-10T23:44:46.063Z,83.70
2019-04-10T23:47:16.031Z,83.40
2019-04-10T23:49:46.036Z,83.16
2019-04-10T23:52:16.073Z,83.14
2019-04-10T23:54:46.104Z,82.91
2019-04-10T23:57:16.956Z,82.89
2019-04-10T23:59:47.014Z,82.88
